Time;durP1;ratioP1;P1;durP2;ratioP2;P2;SDS_P1;SDS_P2;PMS_P1;PMS_P2;Temp;Humidity;BMP_temperature;BMP_pressure;BME280_temperature;BME280_humidity;BME280_pressure;Samples;Min_cycle;Max_cycle;Signal;HPM_P1;HPM_P2
2023/06/17 08:14:18;;;;;;;7.20;5.65;;;22.90;15.60;;;;;;4955968;29;20221;-83
2023/06/17 08:16:45;;;;;;;8.77;6.18;;;23.00;14.70;;;;;;4963398;29;20215;-91
2023/06/17 08:19:13;;;;;;;5.82;5.05;;;23.70;14.60;;;;;;5323339;23;20243;-86
2023/06/17 08:21:41;;;;;;;6.43;5.82;;;24.90;14.10;;;;;;4978621;28;20232;-88
2023/06/17 08:24:18;;;;;;;5.18;4.25;;;26.60;9.70;;;;;;4978493;28;20316;-86
2023/06/17 08:26:50;;;;;;;5.20;4.70;;;28.90;6.50;;;;;;4976665;28;20203;-89
2023/06/17 08:29:18;;;;;;;7.65;4.60;;;30.50;4.50;;;;;;4970075;28;20227;-91
2023/06/17 08:31:48;;;;;;;5.32;4.60;;;31.10;2.20;;;;;;4953931;28;20725;-92
2023/06/17 08:34:15;;;;;;;5.95;5.22;;;32.10;1.00;;;;;;4982830;28;20200;-91
2023/06/17 08:36:44;;;;;;;5.95;5.45;;;32.00;1.00;;;;;;4974757;28;20291;-91
2023/06/17 08:42:33;;;;;;;5.45;4.95;;;32.10;1.00;;;;;;4972761;28;20264;-91
2023/06/17 08:48:06;;;;;;;6.68;4.90;;;32.00;1.00;;;;;;4979215;28;20247;-91
2023/06/17 08:51:12;;;;;;;6.18;5.68;;;32.70;1.00;;;;;;4977155;28;20224;-89
2023/06/17 08:53:40;;;;;;;5.72;5.10;;;32.00;1.00;;;;;;4975713;28;20203;-92
2023/06/17 08:56:07;;;;;;;6.38;5.70;;;31.80;1.00;;;;;;4960400;28;20208;-87
2023/06/17 08:58:37;;;;;;;5.80;5.10;;;31.80;1.00;;;;;;4977475;28;20660;-93
2023/06/17 09:01:06;;;;;;;6.00;5.50;;;32.40;1.00;;;;;;4978836;28;20201;-92
2023/06/17 09:03:36;;;;;;;55.45;50.25;;;33.30;1.00;;;;;;4984319;28;20286;-92
2023/06/17 09:06:20;;;;;;;8.05;5.95;;;32.70;1.00;;;;;;4977590;28;20211;-92
2023/06/17 09:08:47;;;;;;;9.98;9.07;;;33.00;1.00;;;;;;4970193;28;20271;-94
2023/06/17 09:11:15;;;;;;;5.85;5.35;;;33.30;1.00;;;;;;4981783;28;20263;-92
2023/06/17 09:13:41;;;;;;;6.25;5.65;;;33.30;1.00;;;;;;4979358;28;20208;-93
2023/06/17 09:16:11;;;;;;;6.40;5.43;;;33.20;1.00;;;;;;4980724;28;20298;-90
2023/06/17 09:18:38;;;;;;;6.15;5.65;;;33.70;1.00;;;;;;4962906;28;20235;-93
2023/06/17 09:21:05;;;;;;;5.80;5.30;;;33.10;1.00;;;;;;4976000;28;20228;-93
2023/06/17 09:23:32;;;;;;;5.88;5.38;;;33.00;1.00;;;;;;4974141;28;20228;-90
2023/06/17 09:26:03;;;;;;;6.05;5.45;;;32.50;1.00;;;;;;4975822;28;20209;-90
2023/06/17 09:28:30;;;;;;;6.25;5.75;;;32.50;1.00;;;;;;4982525;28;20279;-93
2023/06/17 09:30:59;;;;;;;6.10;5.60;;;32.70;1.00;;;;;;4972757;28;20224;-91
2023/06/17 09:33:28;;;;;;;6.35;5.75;;;31.70;1.00;;;;;;4980766;28;20203;-91
2023/06/17 09:36:03;;;;;;;5.80;5.18;;;31.30;1.00;;;;;;4981798;28;20216;-92
2023/06/17 09:38:31;;;;;;;6.70;5.65;;;31.70;1.00;;;;;;4968349;28;20191;-92
2023/06/17 09:40:59;;;;;;;6.43;5.75;;;31.90;1.00;;;;;;4966657;28;20197;-89
2023/06/17 09:43:27;;;;;;;7.28;5.75;;;31.90;1.00;;;;;;4971651;28;20661;-92
2023/06/17 09:45:55;;;;;;;6.93;5.65;;;30.80;1.00;;;;;;4971631;28;20268;-89
2023/06/17 09:48:28;;;;;;;6.00;5.45;;;30.20;1.00;;;;;;4963672;28;20531;-89
2023/06/17 09:50:57;;;;;;;6.68;6.07;;;29.10;1.00;;;;;;4965162;28;20232;-91
2023/06/17 09:53:27;;;;;;;6.60;5.50;;;28.70;1.00;;;;;;4964666;28;20215;-89
2023/06/17 09:55:57;;;;;;;23.77;21.23;;;28.40;1.00;;;;;;4969697;28;20204;-89
2023/06/17 09:58:26;;;;;;;26.42;23.63;;;28.10;2.90;;;;;;4968667;28;20204;-87
2023/06/17 10:00:53;;;;;;;9.15;8.18;;;28.40;2.20;;;;;;4966559;28;20207;-89
2023/06/17 10:03:20;;;;;;;10.02;6.28;;;28.90;2.00;;;;;;4971269;28;20555;-87
2023/06/17 10:05:53;;;;;;;6.22;5.70;;;29.10;1.40;;;;;;4968218;28;20197;-90
2023/06/17 10:08:23;;;;;;;6.30;5.70;;;29.20;2.30;;;;;;4971485;28;20521;-90
2023/06/17 10:10:52;;;;;;;7.28;5.78;;;29.80;1.60;;;;;;4965172;28;20228;-88
2023/06/17 10:13:22;;;;;;;6.63;5.57;;;30.20;1.00;;;;;;4970918;28;20200;-89
2023/06/17 10:15:51;;;;;;;7.05;5.68;;;29.10;1.90;;;;;;4952782;28;20202;-86
2023/06/17 10:18:20;;;;;;;6.63;5.75;;;28.40;2.30;;;;;;4978773;28;20239;-90
2023/06/17 10:20:49;;;;;;;8.00;5.47;;;28.00;3.00;;;;;;4967146;28;20759;-89
2023/06/17 10:23:17;;;;;;;6.38;5.78;;;28.40;2.30;;;;;;4972801;28;20196;-90
2023/06/17 10:25:46;;;;;;;6.13;5.53;;;29.00;2.10;;;;;;4970430;28;20575;-89
2023/06/17 10:28:15;;;;;;;6.45;5.20;;;29.50;1.00;;;;;;4965591;28;20203;-90
2023/06/17 10:30:44;;;;;;;6.32;5.50;;;30.10;2.60;;;;;;4969531;28;20215;-87
2023/06/17 10:33:12;;;;;;;7.05;5.90;;;30.70;1.00;;;;;;4969092;28;20199;-90
2023/06/17 10:35:40;;;;;;;6.32;5.35;;;30.90;1.00;;;;;;4968417;28;20197;-87
2023/06/17 10:38:08;;;;;;;7.20;5.97;;;30.70;1.00;;;;;;4968561;28;20208;-90
2023/06/17 10:40:40;;;;;;;6.05;5.55;;;30.20;1.00;;;;;;4971866;28;20219;-87
2023/06/17 10:43:19;;;;;;;6.60;6.00;;;30.20;1.40;;;;;;4966382;28;20283;-90
2023/06/17 10:45:55;;;;;;;9.90;5.47;;;30.40;1.00;;;;;;4971002;28;20243;-87
2023/06/17 10:48:25;;;;;;;7.20;5.53;;;30.10;2.60;;;;;;4963556;28;20210;-89
2023/06/17 10:50:53;;;;;;;6.32;5.60;;;30.30;1.00;;;;;;4972137;28;20232;-89
2023/06/17 10:53:27;;;;;;;7.25;5.90;;;29.80;1.00;;;;;;4967078;28;20199;-87
2023/06/17 10:55:55;;;;;;;6.80;5.40;;;29.00;2.60;;;;;;4972934;28;20235;-85
2023/06/17 10:58:24;;;;;;;6.63;5.63;;;29.10;2.20;;;;;;4965803;28;20247;-88
2023/06/17 11:01:11;;;;;;;9.02;5.90;;;29.30;4.00;;;;;;4977021;28;20200;-90
2023/06/17 11:03:38;;;;;;;8.35;4.90;;;29.60;1.50;;;;;;4966251;28;20235;-89
2023/06/17 11:06:06;;;;;;;6.47;5.75;;;30.20;2.50;;;;;;4973449;28;20222;-87
2023/06/17 11:08:34;;;;;;;8.00;5.90;;;30.00;2.10;;;;;;4970498;28;20216;-88
2023/06/17 11:11:12;;;;;;;6.85;6.10;;;29.60;3.10;;;;;;4969228;28;20215;-90
2023/06/17 11:13:42;;;;;;;7.05;5.68;;;29.20;2.60;;;;;;4970516;28;20203;-88
2023/06/17 11:16:09;;;;;;;5.95;5.35;;;28.80;2.30;;;;;;4970605;28;20200;-90
2023/06/17 11:18:37;;;;;;;6.60;5.70;;;28.40;1.80;;;;;;4956148;28;20296;-88
2023/06/17 11:21:09;;;;;;;6.05;5.30;;;28.40;2.70;;;;;;4967864;28;20219;-86
2023/06/17 11:23:38;;;;;;;8.30;5.97;;;28.40;2.30;;;;;;4974491;28;20275;-90
2023/06/17 11:26:05;;;;;;;7.00;5.30;;;28.30;3.20;;;;;;4966927;28;20283;-89
2023/06/17 11:28:32;;;;;;;7.35;5.35;;;28.20;3.10;;;;;;4972349;28;20204;-88
2023/06/17 11:31:00;;;;;;;6.97;5.82;;;28.20;2.90;;;;;;4955903;28;20228;-87
2023/06/17 11:33:29;;;;;;;10.80;8.57;;;28.40;2.40;;;;;;4968051;28;20216;-83
2023/06/17 11:35:56;;;;;;;6.68;5.55;;;28.80;2.80;;;;;;4974513;28;20665;-82
2023/06/17 11:38:24;;;;;;;6.30;5.70;;;28.50;1.90;;;;;;4968059;28;20207;-81
2023/06/17 11:40:55;;;;;;;6.07;4.82;;;27.70;4.50;;;;;;4970428;28;20196;-85
2023/06/17 11:43:25;;;;;;;8.68;5.43;;;27.30;4.60;;;;;;4975475;28;20193;-84
2023/06/17 11:46:01;;;;;;;6.50;5.15;;;27.30;4.40;;;;;;4976153;28;20195;-83
2023/06/17 11:48:29;;;;;;;14.45;12.80;;;27.40;4.00;;;;;;4975152;28;20286;-81
2023/06/17 11:50:57;;;;;;;8.80;5.82;;;26.90;4.80;;;;;;4957059;28;20220;-83
2023/06/17 11:53:36;;;;;;;9.25;8.18;;;26.60;5.30;;;;;;4957713;28;20239;-85
2023/06/17 12:07:12;;;;;;;6.07;5.47;;;27.10;5.60;;;;;;4954996;29;20267;-84
2023/06/17 12:22:58;;;;;;;6.90;5.13;;;27.40;3.30;;;;;;4956002;29;20200;-84
2023/06/17 12:25:25;;;;;;;7.85;5.60;;;27.30;2.30;;;;;;4960781;28;20193;-86
2023/06/17 12:27:52;;;;;;;7.70;5.68;;;27.30;1.80;;;;;;4955074;28;20716;-85
2023/06/17 12:30:19;;;;;;;8.30;5.25;;;27.30;1.30;;;;;;4956624;29;20619;-85
2023/06/17 12:33:21;;;;;;;6.78;5.30;;;27.40;2.20;;;;;;4955589;29;20209;-83
2023/06/17 12:35:50;;;;;;;9.05;7.32;;;27.40;1.70;;;;;;4936693;29;20660;-83
2023/06/17 12:38:18;;;;;;;11.27;9.13;;;27.50;2.00;;;;;;4936545;29;20229;-84
2023/06/17 13:09:01;;;;;;;6.75;5.30;;;26.10;5.20;;;;;;4938914;29;20663;-84
2023/06/17 13:18:31;;;;;;;7.20;5.22;;;27.00;4.50;;;;;;5010546;23;20580;-83
2023/06/17 13:20:58;;;;;;;6.88;5.00;;;27.10;3.90;;;;;;4948595;29;20202;-84
2023/06/17 13:26:40;;;;;;;8.65;5.75;;;27.40;4.10;;;;;;4865237;29;20215;-86
2023/06/17 13:32:29;;;;;;;8.60;5.10;;;27.10;4.20;;;;;;4880620;29;20211;-86
2023/06/17 13:34:58;;;;;;;5.85;5.28;;;26.70;5.40;;;;;;4903494;28;20208;-84
2023/06/17 13:37:25;;;;;;;5.82;5.20;;;26.30;4.90;;;;;;4950624;28;20557;-87
2023/06/17 13:39:51;;;;;;;7.20;5.13;;;26.30;4.70;;;;;;4940462;28;20209;-85
2023/06/17 13:42:18;;;;;;;5.93;4.85;;;26.50;5.20;;;;;;4954102;28;20197;-83
2023/06/17 13:44:45;;;;;;;9.20;5.55;;;26.80;4.40;;;;;;4950319;28;20885;-85
2023/06/17 13:47:14;;;;;;;8.82;5.50;;;27.00;4.60;;;;;;4951724;28;20194;-83
2023/06/17 13:49:41;;;;;;;7.72;5.55;;;26.70;4.00;;;;;;4939440;29;20194;-85
2023/06/17 13:56:17;;;;;;;6.93;5.35;;;26.30;5.20;;;;;;4937946;29;20186;-85
2023/06/17 13:59:04;;;;;;;7.80;5.43;;;26.10;5.00;;;;;;4936952;29;20629;-82
2023/06/17 14:01:31;;;;;;;5.80;4.97;;;26.00;6.00;;;;;;4957363;29;20205;-85
2023/06/17 14:03:58;;;;;;;6.10;5.00;;;25.90;5.10;;;;;;4961554;28;20195;-85
2023/06/17 14:06:25;;;;;;;5.68;5.10;;;25.60;5.60;;;;;;4977255;28;20241;-85
2023/06/17 14:08:53;;;;;;;6.55;5.30;;;25.40;6.80;;;;;;4946779;28;20238;-85
2023/06/17 14:11:22;;;;;;;11.85;5.50;;;25.30;7.10;;;;;;4962069;28;20214;-84
2023/06/17 14:13:49;;;;;;;9.27;5.78;;;25.20;6.60;;;;;;4951823;28;20288;-84
2023/06/17 14:16:16;;;;;;;8.07;5.70;;;25.00;7.80;;;;;;4947528;28;20209;-81
2023/06/17 14:18:42;;;;;;;7.65;5.57;;;24.80;7.60;;;;;;4948905;28;20225;-85
2023/06/17 14:21:26;;;;;;;6.07;5.47;;;24.80;7.40;;;;;;4938992;28;20216;-83
2023/06/17 14:24:04;;;;;;;6.72;5.30;;;24.70;7.30;;;;;;4937753;29;20690;-84
2023/06/17 14:26:33;;;;;;;6.43;5.10;;;24.70;7.10;;;;;;4941207;28;20260;-84
2023/06/17 14:29:00;;;;;;;7.45;5.05;;;24.60;8.20;;;;;;4961682;28;20185;-83
2023/06/17 14:31:27;;;;;;;6.70;5.13;;;24.70;7.30;;;;;;4950739;28;20233;-83
2023/06/17 14:33:54;;;;;;;7.43;4.88;;;24.90;7.30;;;;;;4956243;28;20198;-85
2023/06/17 14:36:21;;;;;;;6.93;5.63;;;25.30;5.70;;;;;;4956014;28;20197;-82
2023/06/17 14:38:48;;;;;;;6.55;5.20;;;25.80;6.10;;;;;;4964278;28;20205;-84
2023/06/17 14:41:15;;;;;;;5.57;5.00;;;26.20;6.60;;;;;;4957827;29;20215;-81
2023/06/17 14:43:43;;;;;;;5.90;5.30;;;26.40;7.00;;;;;;4963553;28;20196;-83
2023/06/17 14:46:11;;;;;;;7.25;5.10;;;26.50;4.90;;;;;;4960654;28;20199;-83
2023/06/17 14:48:40;;;;;;;6.47;5.65;;;26.60;4.50;;;;;;4976828;28;20196;-86
2023/06/17 14:51:09;;;;;;;7.13;5.22;;;26.70;4.30;;;;;;4951604;28;20300;-81
2023/06/17 14:53:40;;;;;;;6.25;5.28;;;26.60;3.40;;;;;;4926830;28;20209;-86
2023/06/17 14:56:27;;;;;;;5.75;5.13;;;26.30;3.90;;;;;;4974092;28;20299;-84
2023/06/17 14:58:56;;;;;;;9.43;5.65;;;25.90;4.50;;;;;;4941704;28;20280;-85
2023/06/17 15:01:23;;;;;;;6.40;5.22;;;25.50;5.70;;;;;;4959869;28;20211;-85
2023/06/17 15:03:50;;;;;;;8.00;5.13;;;25.30;4.90;;;;;;4956758;28;20194;-84
2023/06/17 15:06:17;;;;;;;5.80;5.30;;;25.30;5.40;;;;;;4956719;28;20209;-85
2023/06/17 15:08:44;;;;;;;5.47;4.95;;;25.50;4.80;;;;;;4954048;28;20206;-84
2023/06/17 15:11:11;;;;;;;6.07;5.30;;;25.90;5.00;;;;;;4947642;28;20264;-84
2023/06/17 15:13:38;;;;;;;6.35;5.20;;;26.10;5.10;;;;;;4959458;28;20201;-81
2023/06/17 15:16:06;;;;;;;6.88;5.47;;;26.30;4.70;;;;;;4962186;28;20212;-83
2023/06/17 15:18:36;;;;;;;8.93;4.90;;;26.40;4.80;;;;;;4961855;28;20240;-79
2023/06/17 15:21:03;;;;;;;9.35;5.25;;;26.10;4.40;;;;;;4954859;28;20197;-85
2023/06/17 15:23:30;;;;;;;6.75;5.22;;;25.90;4.70;;;;;;4958770;28;20248;-85
2023/06/17 15:25:57;;;;;;;5.30;4.80;;;25.40;4.70;;;;;;4954942;28;20209;-80
2023/06/17 15:28:23;;;;;;;5.43;4.93;;;25.30;5.30;;;;;;4948215;28;20200;-83
2023/06/17 15:30:50;;;;;;;6.05;5.10;;;25.40;5.20;;;;;;4951880;28;20198;-84
2023/06/17 15:33:19;;;;;;;9.15;5.15;;;25.50;4.80;;;;;;4948519;28;20707;-86
2023/06/17 15:35:46;;;;;;;9.38;5.20;;;25.60;4.80;;;;;;4953267;28;20202;-84
2023/06/17 15:38:13;;;;;;;8.00;5.35;;;25.80;4.30;;;;;;4955931;28;20200;-82
2023/06/17 15:40:40;;;;;;;6.95;5.50;;;25.90;5.00;;;;;;4948669;28;20202;-84
2023/06/17 15:43:07;;;;;;;8.55;5.28;;;25.90;5.10;;;;;;4940964;28;20212;-85
2023/06/17 15:45:33;;;;;;;6.13;4.80;;;26.00;5.10;;;;;;4959187;28;20206;-81
2023/06/17 15:48:00;;;;;;;7.68;5.55;;;25.90;4.10;;;;;;4955631;28;20672;-84
2023/06/17 15:50:28;;;;;;;9.23;5.32;;;25.90;5.00;;;;;;4943857;28;20198;-84
2023/06/17 15:52:55;;;;;;;7.45;4.90;;;25.90;5.00;;;;;;4948820;28;20220;-85
2023/06/17 15:55:22;;;;;;;8.45;5.32;;;25.90;5.00;;;;;;4948384;28;20205;-84
2023/06/17 15:57:49;;;;;;;6.60;5.20;;;25.90;4.20;;;;;;4928462;28;20557;-83
2023/06/17 16:00:17;;;;;;;6.00;5.13;;;26.00;4.50;;;;;;4962661;28;20676;-83
2023/06/17 16:02:43;;;;;;;7.75;6.13;;;26.00;5.10;;;;;;4952990;28;20213;-84
2023/06/17 16:05:15;;;;;;;6.90;5.20;;;26.00;5.10;;;;;;4956008;28;20201;-84
2023/06/17 16:07:43;;;;;;;6.82;4.88;;;26.00;5.00;;;;;;4955204;28;20241;-85
2023/06/17 16:10:11;;;;;;;9.63;5.25;;;25.90;5.50;;;;;;4961533;28;20202;-86
2023/06/17 16:12:38;;;;;;;7.75;5.78;;;25.60;4.80;;;;;;4954594;28;20701;-84
2023/06/17 16:15:06;;;;;;;7.60;5.47;;;25.50;4.80;;;;;;4953921;28;20209;-86
2023/06/17 16:17:34;;;;;;;8.63;5.38;;;25.50;5.60;;;;;;4949343;28;20229;-88
2023/06/17 16:20:01;;;;;;;6.65;5.60;;;25.50;4.80;;;;;;4955672;28;20204;-84
2023/06/17 16:22:28;;;;;;;6.90;4.82;;;25.60;4.90;;;;;;4939890;29;20609;-85
2023/06/17 16:24:56;;;;;;;6.32;5.10;;;25.50;4.80;;;;;;4966514;28;20620;-85
2023/06/17 16:27:23;;;;;;;5.72;5.22;;;25.50;5.40;;;;;;4961977;28;20201;-85
2023/06/17 16:29:50;;;;;;;6.53;5.93;;;25.60;4.80;;;;;;4954455;28;20201;-84
2023/06/17 16:32:17;;;;;;;6.55;5.05;;;25.60;4.90;;;;;;4961579;28;20224;-84
2023/06/17 16:34:44;;;;;;;5.82;5.00;;;25.70;5.70;;;;;;4958536;28;20312;-84
2023/06/17 16:37:12;;;;;;;7.22;5.57;;;25.80;5.90;;;;;;4961177;28;20653;-84
2023/06/17 16:39:39;;;;;;;8.27;5.55;;;25.90;5.00;;;;;;4941533;28;20257;-83
2023/06/17 16:42:08;;;;;;;7.63;5.60;;;25.90;5.00;;;;;;4959223;28;20554;-84
2023/06/17 16:44:35;;;;;;;7.88;5.47;;;25.80;4.90;;;;;;4960039;28;20655;-80
2023/06/17 16:47:02;;;;;;;6.90;5.50;;;25.60;5.60;;;;;;4942853;29;20296;-83
2023/06/17 16:49:29;;;;;;;5.78;5.15;;;25.40;4.80;;;;;;4959123;28;20194;-84
2023/06/17 16:51:55;;;;;;;8.35;6.70;;;25.30;5.60;;;;;;4967534;28;20229;-83
2023/06/17 16:54:22;;;;;;;5.75;5.05;;;25.30;6.30;;;;;;4965004;28;20203;-80
2023/06/17 16:56:49;;;;;;;10.60;6.93;;;25.30;5.50;;;;;;4962875;28;20209;-86
2023/06/17 16:59:17;;;;;;;14.23;6.18;;;25.20;5.50;;;;;;4950845;29;20663;-82
2023/06/17 17:01:44;;;;;;;6.35;5.60;;;25.20;6.10;;;;;;4958089;28;20209;-83
2023/06/17 17:04:12;;;;;;;10.15;5.47;;;25.10;6.50;;;;;;4948328;29;20201;-83
2023/06/17 17:06:40;;;;;;;5.95;5.38;;;25.00;5.80;;;;;;4957954;28;20260;-81
2023/06/17 17:09:07;;;;;;;6.57;5.88;;;25.00;6.10;;;;;;4937605;28;20213;-83
2023/06/17 17:11:33;;;;;;;7.47;5.55;;;25.10;5.60;;;;;;4958214;29;20201;-85
2023/06/17 17:14:00;;;;;;;9.57;6.97;;;25.00;6.10;;;;;;4956729;28;20205;-80
2023/06/17 17:16:29;;;;;;;7.43;5.88;;;24.90;6.80;;;;;;4955304;28;20197;-84
2023/06/17 17:18:56;;;;;;;9.27;5.80;;;25.00;5.50;;;;;;4947359;28;20229;-84
2023/06/17 17:21:23;;;;;;;6.53;5.80;;;24.90;5.90;;;;;;4970031;28;20212;-84
2023/06/17 17:23:50;;;;;;;6.40;5.47;;;24.90;6.10;;;;;;4958324;28;20215;-80
2023/06/17 17:26:17;;;;;;;8.75;5.50;;;24.80;6.00;;;;;;4939941;29;20206;-82
2023/06/17 17:28:44;;;;;;;10.68;5.43;;;24.70;6.80;;;;;;4958215;29;20227;-82
2023/06/17 17:31:11;;;;;;;9.48;5.80;;;24.60;7.00;;;;;;4940197;29;20650;-87
2023/06/17 17:33:43;;;;;;;6.85;5.20;;;24.50;6.80;;;;;;4948765;28;20243;-85
2023/06/17 17:36:10;;;;;;;8.88;4.90;;;24.40;6.40;;;;;;4932531;28;20295;-87
2023/06/17 17:38:37;;;;;;;6.07;4.70;;;24.40;6.90;;;;;;4951569;28;20292;-86
2023/06/17 17:41:04;;;;;;;6.82;5.22;;;24.40;6.20;;;;;;4948282;28;20197;-85
2023/06/17 17:43:31;;;;;;;6.90;5.25;;;24.40;6.60;;;;;;4941528;28;20224;-82
2023/06/17 17:45:58;;;;;;;6.40;5.65;;;24.30;7.40;;;;;;4948353;28;20202;-87
2023/06/17 17:48:25;;;;;;;8.48;5.82;;;24.20;6.60;;;;;;4929472;28;20224;-83
2023/06/17 17:50:53;;;;;;;7.57;5.38;;;24.20;6.40;;;;;;4951786;28;20204;-85
2023/06/17 17:53:20;;;;;;;5.25;4.75;;;24.10;6.70;;;;;;4947007;28;20221;-89
2023/06/17 17:55:47;;;;;;;7.63;5.30;;;24.10;6.50;;;;;;4957689;28;20208;-88
2023/06/17 17:58:14;;;;;;;8.35;4.97;;;24.10;6.50;;;;;;4958343;28;20202;-88
2023/06/17 18:00:41;;;;;;;5.63;5.10;;;24.00;7.10;;;;;;4950321;28;20229;-89
2023/06/17 18:03:08;;;;;;;8.15;5.85;;;23.90;7.20;;;;;;4951714;28;20204;-83
2023/06/17 18:05:35;;;;;;;8.45;5.78;;;23.80;8.00;;;;;;4948520;28;20201;-85
2023/06/17 18:08:03;;;;;;;8.57;5.50;;;23.60;8.10;;;;;;4951383;28;20198;-80
2023/06/17 18:10:30;;;;;;;5.95;4.75;;;23.60;8.90;;;;;;4944866;28;20209;-84
2023/06/17 18:12:57;;;;;;;6.63;5.70;;;23.60;6.80;;;;;;4933785;28;20222;-79
2023/06/17 18:15:24;;;;;;;6.75;5.03;;;23.50;7.90;;;;;;4949031;28;20260;-80
2023/06/17 18:17:51;;;;;;;8.75;5.53;;;23.40;8.00;;;;;;4957014;28;20224;-81
2023/06/17 18:20:18;;;;;;;6.10;5.50;;;23.40;8.10;;;;;;4926802;28;20567;-86
2023/06/17 18:22:45;;;;;;;7.38;5.38;;;23.30;7.30;;;;;;4952566;28;20677;-85
2023/06/17 18:25:14;;;;;;;6.93;5.20;;;23.20;8.00;;;;;;4953656;28;20209;-85
2023/06/17 18:27:41;;;;;;;6.55;5.07;;;23.20;7.70;;;;;;4946603;28;20209;-84
2023/06/17 18:30:09;;;;;;;6.10;5.03;;;23.10;7.60;;;;;;4946626;28;20209;-81
2023/06/17 18:32:36;;;;;;;9.23;5.55;;;22.90;8.50;;;;;;4930415;28;20683;-83
2023/06/17 18:35:03;;;;;;;8.90;5.50;;;22.80;8.20;;;;;;4936149;28;20213;-85
2023/06/17 18:37:31;;;;;;;6.55;5.45;;;22.70;9.80;;;;;;4949374;28;20193;-88
2023/06/17 18:39:58;;;;;;;8.65;5.72;;;22.60;9.30;;;;;;4948084;28;20655;-86
2023/06/17 18:42:26;;;;;;;7.72;5.75;;;22.50;9.10;;;;;;4926946;28;20201;-88
2023/06/17 18:44:53;;;;;;;7.45;5.15;;;22.40;9.60;;;;;;4933746;28;20203;-89
2023/06/17 18:47:22;;;;;;;5.95;5.35;;;22.30;9.80;;;;;;4930685;28;20212;-89
2023/06/17 18:49:49;;;;;;;6.85;5.60;;;22.20;9.70;;;;;;4953450;28;20265;-90
2023/06/17 18:52:16;;;;;;;10.70;5.60;;;22.20;9.60;;;;;;4956346;28;20230;-85
2023/06/17 18:54:43;;;;;;;6.35;5.10;;;22.20;10.70;;;;;;4924610;29;20202;-86
2023/06/17 18:57:10;;;;;;;7.32;5.80;;;22.10;10.50;;;;;;4950252;28;20201;-88
2023/06/17 18:59:38;;;;;;;10.55;5.95;;;22.00;11.30;;;;;;4948469;28;20202;-87
2023/06/17 19:02:05;;;;;;;7.68;5.53;;;21.90;11.60;;;;;;4950354;28;20828;-88
2023/06/17 19:04:32;;;;;;;9.55;5.50;;;21.90;13.10;;;;;;4946605;28;20290;-87
2023/06/17 19:07:00;;;;;;;9.20;5.95;;;21.80;12.10;;;;;;4949589;28;20201;-87
2023/06/17 19:09:27;;;;;;;6.97;5.43;;;21.70;12.10;;;;;;4915512;28;20261;-88
2023/06/17 19:11:59;;;;;;;10.02;6.10;;;21.60;12.00;;;;;;4943027;28;20213;-86
2023/06/17 19:14:26;;;;;;;11.25;5.97;;;21.50;11.90;;;;;;4928891;28;20233;-86
2023/06/17 19:16:54;;;;;;;9.55;6.38;;;21.40;11.90;;;;;;4945546;28;20613;-86
2023/06/17 19:19:21;;;;;;;10.27;6.80;;;21.30;11.80;;;;;;4945223;28;20221;-86
2023/06/17 19:21:48;;;;;;;13.57;6.65;;;21.20;13.00;;;;;;4914457;28;20217;-89
2023/06/17 19:24:18;;;;;;;9.27;6.78;;;21.10;13.70;;;;;;4916802;28;20193;-89
2023/06/17 19:26:45;;;;;;;8.93;6.93;;;21.00;13.80;;;;;;4926152;29;20204;-85
2023/06/17 19:29:12;;;;;;;7.55;6.40;;;20.90;14.20;;;;;;4936712;28;20202;-85
2023/06/17 19:31:38;;;;;;;8.88;6.40;;;20.80;14.60;;;;;;4945498;28;20216;-85
2023/06/17 19:34:07;;;;;;;7.03;6.30;;;20.80;15.50;;;;;;4922352;29;20274;-84
2023/06/17 19:36:34;;;;;;;7.88;6.45;;;20.70;15.40;;;;;;4946055;28;20213;-85
2023/06/17 19:39:01;;;;;;;9.32;6.65;;;20.60;15.80;;;;;;4956722;28;20192;-89
2023/06/17 19:41:29;;;;;;;14.20;7.28;;;20.40;16.20;;;;;;4959350;28;20216;-86
2023/06/17 19:43:56;;;;;;;7.72;5.80;;;20.30;16.70;;;;;;4949628;28;20213;-87
2023/06/17 19:46:24;;;;;;;7.55;6.68;;;20.20;16.90;;;;;;4954255;28;20196;-93
2023/06/17 19:48:51;;;;;;;9.73;6.35;;;20.10;17.10;;;;;;4953577;28;20209;-87
2023/06/17 19:51:19;;;;;;;8.60;5.75;;;20.00;17.50;;;;;;4955934;28;20569;-89
2023/06/17 19:53:46;;;;;;;9.23;6.47;;;19.90;17.70;;;;;;4947108;28;20226;-90
2023/06/17 19:56:13;;;;;;;7.68;6.65;;;19.80;18.20;;;;;;4945628;28;20670;-91
2023/06/17 19:58:40;;;;;;;7.80;6.22;;;19.70;18.40;;;;;;4946539;28;20209;-90
2023/06/17 20:01:07;;;;;;;10.55;6.68;;;19.60;18.70;;;;;;4935997;28;20198;-89
2023/06/17 20:03:35;;;;;;;8.30;6.28;;;19.50;19.20;;;;;;4926603;28;20212;-89
2023/06/17 20:06:02;;;;;;;8.55;6.80;;;19.40;19.50;;;;;;4946412;28;20602;-91
2023/06/17 20:11:11;;;;;;;10.88;7.07;;;19.20;19.80;;;;;;4947059;28;20208;-87
2023/06/17 20:13:38;;;;;;;9.48;6.60;;;19.10;20.00;;;;;;4946644;28;20315;-91
2023/06/17 20:16:05;;;;;;;10.90;6.80;;;19.10;20.00;;;;;;4949933;28;20209;-90
2023/06/17 20:18:32;;;;;;;9.80;7.25;;;19.00;20.40;;;;;;4951165;28;20229;-88
2023/06/17 20:20:59;;;;;;;9.93;8.20;;;18.90;20.80;;;;;;4924287;28;20217;-91
2023/06/17 20:23:28;;;;;;;10.52;7.43;;;18.80;21.00;;;;;;4934970;29;20193;-91
2023/06/17 20:25:57;;;;;;;10.05;8.63;;;18.70;21.20;;;;;;4940633;29;20206;-90
2023/06/17 20:28:24;;;;;;;12.52;8.48;;;18.60;21.80;;;;;;4932939;29;20261;-90
2023/06/17 20:30:51;;;;;;;9.25;8.13;;;18.50;22.30;;;;;;4942510;28;20261;-91
2023/06/17 20:33:18;;;;;;;9.95;8.35;;;18.50;23.50;;;;;;4949316;28;20221;-91
2023/06/17 20:35:45;;;;;;;13.05;8.75;;;18.40;23.40;;;;;;4950570;28;20216;-90
2023/06/17 20:38:13;;;;;;;10.07;8.52;;;18.40;23.30;;;;;;4936146;28;20209;-93
2023/06/17 20:40:40;;;;;;;10.38;8.30;;;18.30;24.00;;;;;;4950060;28;20639;-91
2023/06/17 20:45:50;;;;;;;10.48;8.57;;;18.20;24.30;;;;;;4943871;28;20685;-91
2023/06/17 20:50:57;;;;;;;11.85;8.60;;;18.20;25.30;;;;;;4922001;28;20293;-90
2023/06/17 20:53:25;;;;;;;12.88;8.18;;;18.10;26.10;;;;;;4942673;28;20221;-90
2023/06/17 20:55:52;;;;;;;11.18;8.13;;;18.10;26.40;;;;;;4935884;28;20215;-90
2023/06/17 21:01:02;;;;;;;12.98;8.70;;;18.00;27.00;;;;;;4941184;28;20261;-90
2023/06/17 21:03:29;;;;;;;12.60;7.85;;;17.90;27.50;;;;;;4946970;28;20210;-89
2023/06/17 21:05:56;;;;;;;10.48;8.05;;;17.90;28.00;;;;;;4933722;28;20210;-91
2023/06/17 21:08:23;;;;;;;11.88;8.80;;;17.90;28.00;;;;;;4926650;28;20677;-89
2023/06/17 21:10:50;;;;;;;11.88;8.48;;;17.80;28.20;;;;;;4929369;28;20213;-89
2023/06/17 21:13:17;;;;;;;11.98;8.73;;;17.80;28.50;;;;;;4947446;28;20252;-89
2023/06/17 21:15:46;;;;;;;11.90;7.55;;;17.80;29.20;;;;;;4928881;29;20289;-90
2023/06/17 21:18:13;;;;;;;11.98;8.15;;;17.80;30.10;;;;;;4937580;28;20225;-89
2023/06/17 21:20:40;;;;;;;16.40;8.82;;;17.70;29.20;;;;;;4945644;28;20205;-89
2023/06/17 21:23:07;;;;;;;13.35;9.75;;;17.70;30.10;;;;;;4952050;28;20217;-90
2023/06/17 21:25:37;;;;;;;9.73;8.40;;;17.70;30.00;;;;;;4945302;28;20210;-88
2023/06/17 21:28:04;;;;;;;10.18;8.25;;;17.70;30.10;;;;;;4951534;28;20293;-88
2023/06/17 21:33:14;;;;;;;15.85;10.27;;;17.60;30.00;;;;;;4937452;28;20225;-90
2023/06/17 21:35:42;;;;;;;11.48;9.55;;;17.60;30.00;;;;;;4949063;28;20209;-88
2023/06/17 21:38:09;;;;;;;10.70;9.13;;;17.60;30.10;;;;;;4953782;28;20582;-90
2023/06/17 21:40:36;;;;;;;12.00;9.13;;;17.50;30.00;;;;;;4933707;29;20201;-88
2023/06/17 21:43:03;;;;;;;12.10;9.00;;;17.50;30.00;;;;;;4952021;28;20198;-91
2023/06/17 21:45:30;;;;;;;10.40;9.30;;;17.40;29.90;;;;;;4951818;28;20198;-87
2023/06/17 21:47:58;;;;;;;14.38;12.00;;;17.30;31.50;;;;;;4949059;28;20602;-92
2023/06/17 21:53:07;;;;;;;14.27;10.30;;;17.20;34.00;;;;;;4949542;28;20253;-90
2023/06/17 21:55:34;;;;;;;14.95;10.93;;;17.20;33.10;;;;;;4955327;28;20233;-90
2023/06/17 21:58:01;;;;;;;16.77;12.18;;;17.10;33.20;;;;;;4937950;28;20205;-89
2023/06/17 22:00:29;;;;;;;14.65;11.85;;;17.10;35.30;;;;;;4950563;28;20234;-89
2023/06/17 22:02:56;;;;;;;11.57;9.93;;;17.10;35.70;;;;;;4947204;28;20198;-89
2023/06/17 22:05:23;;;;;;;14.95;11.48;;;17.10;35.80;;;;;;4945270;28;20608;-90
2023/06/17 22:10:33;;;;;;;16.90;10.23;;;17.00;36.00;;;;;;4954189;28;20213;-90
2023/06/17 22:13:01;;;;;;;13.85;10.48;;;16.90;35.60;;;;;;4948978;28;20741;-89
2023/06/17 22:15:27;;;;;;;12.93;9.93;;;16.80;36.00;;;;;;4954156;28;20206;-90
2023/06/17 22:17:54;;;;;;;11.27;10.07;;;16.70;35.80;;;;;;4952985;28;20276;-91
2023/06/17 22:20:22;;;;;;;12.23;9.95;;;16.70;36.70;;;;;;4953328;28;20859;-90
2023/06/17 22:22:49;;;;;;;12.02;10.18;;;16.60;37.30;;;;;;4957411;28;20216;-89
2023/06/17 22:28:18;;;;;;;14.85;9.77;;;16.50;36.70;;;;;;4939855;28;20201;-88
2023/06/17 22:30:45;;;;;;;11.23;9.25;;;16.50;37.00;;;;;;4942238;28;20209;-92
2023/06/17 22:33:12;;;;;;;19.75;13.50;;;16.50;36.10;;;;;;4942222;28;20193;-90
2023/06/17 22:38:20;;;;;;;16.83;13.27;;;16.50;39.20;;;;;;4936176;28;20662;-90
2023/06/17 22:40:48;;;;;;;27.77;22.75;;;16.60;38.20;;;;;;4953439;28;20205;-90
2023/06/17 22:43:15;;;;;;;17.42;13.57;;;16.60;39.00;;;;;;4948458;28;20269;-89
2023/06/17 22:45:42;;;;;;;14.02;12.40;;;16.70;38.30;;;;;;4947586;28;20208;-92
2023/06/17 22:48:10;;;;;;;13.02;8.93;;;16.70;38.30;;;;;;4951536;28;20962;-90
2023/06/17 22:50:37;;;;;;;11.70;9.60;;;16.60;38.00;;;;;;4929304;29;20206;-90